Aérodrome :
LOGIN :

S'inscrire | Disclaimer

   EN    FR    IT 

 










Légende :    VFR   VFR Marginal   IFR   IFR Intensif   IFR Très Intensif
Visi : 
Plafond : 
>= 8 km
>= 3000ft
5 à 8 km
1000 à 3000 ft
1500m à 5 km
500 à 1000 ft
800 à 1500m
200 à 500 ft
< 800m
< 200 ft
Symboles :   Orages  Brouillard  Fortes neiges  Fortes précipitations  Vent > 20 kt
SIGMETs :   Divers  Orages  Givrage  Turbulence  Onde Orograph.  Cendres Volcan.






- Altitude de l'aérodrome : 52 ft
- Code IATA : RNN


EKRN - Bornholm Ronne

DERNIER METAR :
  • 181750Z AUTO 14013KT 9999 FEW089/// OVC110/// 14/13 Q1005

METARs EXPIRÉS :
  • 181720Z AUTO 14010KT 9000 -SHRA BKN075/// BKN120/// 14/13 Q1006
  • 181650Z AUTO 12010KT 7000 BKN110/// BKN140/// 13/13 Q1006
  • 181620Z AUTO 12011KT 7000 BKN110/// 13/13 Q1006
  • 181550Z AUTO 12008KT 9000 FEW016/// BKN140/// BKN180/// 13/13 Q1006
  • 181520Z AUTO 12008KT 9999 FEW009/// SCT110/// SCT170/// 13/13 Q1006

TAF TAF EKRN
Valide du 18 à 18h jusqu'au 18 à 22h UTC


181722Z 1818/1822 14010KT 6000 BKN015
TEMPO 1818/1819 BKN010
BECMG 1819/1821 22015KT
TEMPO 1819/1822 4000 SHRA BKN008 SCT020CB



MET'MAP, la Météo Aéronautique d'un coup d'oeil ! - Copyright ORBIFLY Décembre 2007 - Disclaimer

ORBIFLY MET'MAP TEAM :

Programmation & Développement : Alexandra Zaïnal
Conception & Développement : Baudouin d'Aumeries
Co-Programmation & Développement : Marc-Olivier Méhu
Soutien technique & logistique : Manuel Goepfert

Contact : metmap@orbifly.com




SOURCES & CREDITS :

   NOAA